Port Colborne, Canada
Current Conditions -  °F | °C
As of 11:53 PM on Sunday 21 Dec 2014 (Local Time) from KIAG Reporting Station
Overcast Overcast  
Wind Chill: 24°   Ceiling: 2200
Heat Index: 30°   Visibility: 10mi
Dew Point: 23°   Wind: 6mph
Humidity: 75%   Direction: 130°SE
Pressure: 30.28"   Gusts: NA
Location:  42.89°N, 79.25°W
Report Text: KIAG 220453Z AUTO 13005KT 10SM OVC022 M01/M05 A3028 RMK AO2 SLP268 T10111050 400111044
Loading
Personal Weather Stations






























Interactive Weather Map New forecast layout! Learn more

10-Day Weather Forecast

Advertisements
Track Severe Weather on mobile